createdAt,value
2017-01-12T00:00:13.333Z,0
2017-01-12T00:01:14.250Z,0
2017-01-12T00:02:13.915Z,0
2017-01-12T00:03:13.366Z,0
2017-01-12T00:04:13.893Z,0
2017-01-12T00:05:14.313Z,0
2017-01-12T00:06:13.545Z,0
2017-01-12T00:07:12.945Z,0
2017-01-12T00:08:13.640Z,0
2017-01-12T00:09:13.525Z,0
2017-01-12T00:10:14.379Z,0
2017-01-12T00:11:13.361Z,0
2017-01-12T00:12:13.971Z,0
2017-01-12T00:13:13.058Z,0
2017-01-12T00:14:14.444Z,0
2017-01-12T00:15:13.632Z,0
2017-01-12T00:16:12.644Z,0
2017-01-12T00:17:13.426Z,0
2017-01-12T00:18:12.866Z,0
2017-01-12T00:19:13.325Z,0
2017-01-12T00:20:12.955Z,0
2017-01-12T00:21:12.900Z,0
2017-01-12T00:22:13.407Z,0
2017-01-12T00:23:13.562Z,0
2017-01-12T00:24:13.861Z,0
2017-01-12T00:25:12.960Z,0
2017-01-12T00:26:13.219Z,0
2017-01-12T00:27:14.133Z,0
2017-01-12T00:28:14.097Z,0
2017-01-12T00:29:12.417Z,0
2017-01-12T00:30:12.633Z,0
2017-01-12T00:31:13.682Z,0
2017-01-12T00:32:12.916Z,0
2017-01-12T00:33:12.754Z,0
2017-01-12T00:34:13.484Z,0
2017-01-12T00:35:12.623Z,0
2017-01-12T00:36:13.243Z,0
2017-01-12T00:37:13.413Z,0
2017-01-12T00:38:12.852Z,0
2017-01-12T00:39:13.015Z,0
2017-01-12T00:40:13.470Z,0
2017-01-12T00:41:13.023Z,0
2017-01-12T00:42:12.779Z,0
2017-01-12T00:43:13.015Z,0
2017-01-12T00:44:13.357Z,0
2017-01-12T00:45:12.742Z,0
2017-01-12T00:46:13.029Z,0
2017-01-12T00:47:12.323Z,0
2017-01-12T00:48:12.985Z,0
2017-01-12T00:49:12.215Z,0
2017-01-12T00:50:13.224Z,0
2017-01-12T00:51:12.570Z,0
2017-01-12T00:52:13.231Z,0
2017-01-12T00:53:13.181Z,0
2017-01-12T00:54:12.711Z,0
2017-01-12T00:55:12.606Z,0
2017-01-12T00:56:12.440Z,0
2017-01-12T00:57:13.059Z,0
2017-01-12T00:58:13.379Z,0
2017-01-12T00:59:12.090Z,0
2017-01-12T01:00:11.868Z,0
2017-01-12T01:01:12.708Z,0
2017-01-12T01:02:12.506Z,0
2017-01-12T01:03:13.126Z,0
2017-01-12T01:04:11.926Z,0
2017-01-12T01:05:12.493Z,0
2017-01-12T01:06:12.550Z,0
2017-01-12T01:07:11.819Z,0
2017-01-12T01:08:12.393Z,0
2017-01-12T01:09:12.803Z,0
2017-01-12T01:10:11.782Z,0
2017-01-12T01:11:11.672Z,0
2017-01-12T01:12:12.365Z,0
2017-01-12T01:13:12.721Z,0
2017-01-12T01:14:12.258Z,0
2017-01-12T01:15:11.330Z,0
2017-01-12T01:16:11.390Z,0
2017-01-12T01:17:11.448Z,0
2017-01-12T01:18:11.390Z,0
2017-01-12T01:19:10.859Z,0
2017-01-12T01:20:12.071Z,0
2017-01-12T01:21:12.086Z,0
2017-01-12T01:22:12.175Z,0
2017-01-12T01:23:12.144Z,0
2017-01-12T01:24:12.033Z,0
2017-01-12T01:25:11.444Z,0
2017-01-12T01:26:12.411Z,0
2017-01-12T01:27:11.298Z,0
2017-01-12T01:28:10.962Z,0
2017-01-12T01:29:11.173Z,0
2017-01-12T01:30:11.642Z,0
2017-01-12T01:31:12.591Z,0
2017-01-12T01:32:10.909Z,0
2017-01-12T01:33:11.183Z,0
2017-01-12T01:34:10.899Z,0
2017-01-12T01:35:11.476Z,0
2017-01-12T01:36:11.679Z,0
2017-01-12T01:37:12.198Z,0
2017-01-12T01:38:11.667Z,0
2017-01-12T01:39:12.299Z,0
2017-01-12T01:40:10.755Z,0
2017-01-12T01:41:11.060Z,0
2017-01-12T01:42:11.687Z,0
2017-01-12T01:43:11.974Z,0
2017-01-12T01:44:11.600Z,0
2017-01-12T01:45:10.628Z,0
2017-01-12T01:46:11.574Z,0
2017-01-12T01:47:10.752Z,0
2017-01-12T01:48:11.543Z,0
2017-01-12T01:49:11.304Z,0
2017-01-12T01:50:11.482Z,0
2017-01-12T01:51:11.999Z,0
2017-01-12T01:52:10.527Z,0
2017-01-12T01:53:11.150Z,0
2017-01-12T01:54:10.669Z,0
2017-01-12T01:55:12.072Z,0
2017-01-12T01:56:11.349Z,0
2017-01-12T01:57:11.339Z,0
2017-01-12T01:58:10.026Z,0
2017-01-12T01:59:11.936Z,0
2017-01-12T02:00:10.607Z,0
2017-01-12T02:01:11.537Z,0
2017-01-12T02:02:10.585Z,0
2017-01-12T02:03:10.857Z,0
2017-01-12T02:04:10.536Z,0
2017-01-12T02:05:10.339Z,0
2017-01-12T02:06:10.805Z,0
2017-01-12T02:07:10.375Z,0
2017-01-12T02:08:10.344Z,0
2017-01-12T02:09:10.574Z,0
2017-01-12T02:10:10.664Z,0
2017-01-12T02:11:10.271Z,0
2017-01-12T02:12:11.694Z,0
2017-01-12T02:13:10.541Z,0
2017-01-12T02:14:10.167Z,0
2017-01-12T02:15:10.557Z,0
2017-01-12T02:16:10.681Z,0
2017-01-12T02:17:11.217Z,0
2017-01-12T02:18:10.788Z,0
2017-01-12T02:19:10.316Z,0
2017-01-12T02:20:11.539Z,0
2017-01-12T02:21:10.213Z,0
2017-01-12T02:22:09.449Z,0
2017-01-12T02:23:09.812Z,0
2017-01-12T02:24:10.277Z,0
2017-01-12T02:25:10.337Z,0
2017-01-12T02:26:10.567Z,0
2017-01-12T02:27:10.286Z,0
2017-01-12T02:28:09.951Z,0
2017-01-12T02:29:10.895Z,0
2017-01-12T02:30:09.584Z,0
2017-01-12T02:31:10.517Z,0
2017-01-12T02:32:10.498Z,0
2017-01-12T02:33:09.185Z,0
2017-01-12T02:34:09.777Z,0
2017-01-12T02:35:09.412Z,0
2017-01-12T02:36:10.942Z,0
2017-01-12T02:37:10.691Z,0
2017-01-12T02:38:09.701Z,0
2017-01-12T02:39:09.698Z,0
2017-01-12T02:40:10.290Z,0
2017-01-12T02:41:09.624Z,0
2017-01-12T02:42:10.604Z,0
2017-01-12T02:43:10.247Z,0
2017-01-12T02:44:10.268Z,0
2017-01-12T02:45:09.565Z,0
2017-01-12T02:46:09.530Z,0
2017-01-12T02:47:09.814Z,0
2017-01-12T02:48:10.426Z,0
2017-01-12T02:49:10.115Z,0
2017-01-12T02:50:09.007Z,0
2017-01-12T02:51:10.048Z,0
2017-01-12T02:52:09.311Z,0
2017-01-12T02:53:09.359Z,0
2017-01-12T02:54:09.671Z,0
2017-01-12T02:55:10.012Z,0
2017-01-12T02:56:10.261Z,0
2017-01-12T02:57:09.682Z,0
2017-01-12T02:58:09.548Z,0
2017-01-12T02:59:09.221Z,0
2017-01-12T03:00:09.893Z,0
2017-01-12T03:01:08.740Z,0
2017-01-12T03:02:09.697Z,0
2017-01-12T03:03:09.353Z,0
2017-01-12T03:04:09.341Z,0
2017-01-12T03:05:10.388Z,0
2017-01-12T03:06:09.679Z,0
2017-01-12T03:07:10.004Z,0
2017-01-12T03:08:09.709Z,0
2017-01-12T03:09:09.645Z,0
2017-01-12T03:10:09.261Z,0
2017-01-12T03:11:09.350Z,0
2017-01-12T03:12:08.743Z,0
2017-01-12T03:13:08.048Z,0
2017-01-12T03:14:08.110Z,0
2017-01-12T03:15:09.823Z,0
2017-01-12T03:16:09.038Z,0
2017-01-12T03:17:08.352Z,0
2017-01-12T03:18:08.974Z,0
2017-01-12T03:19:09.135Z,0
2017-01-12T03:20:09.330Z,0
2017-01-12T03:21:08.680Z,0
2017-01-12T03:22:09.816Z,0
2017-01-12T03:23:08.303Z,0
2017-01-12T03:24:08.957Z,0
2017-01-12T03:25:09.090Z,0
2017-01-12T03:26:08.416Z,0
2017-01-12T03:27:08.882Z,0
2017-01-12T03:28:08.817Z,0
2017-01-12T03:29:08.884Z,0
2017-01-12T03:30:08.465Z,0
2017-01-12T03:31:09.092Z,0
2017-01-12T03:32:08.987Z,0
2017-01-12T03:33:08.303Z,0
2017-01-12T03:34:08.277Z,0
2017-01-12T03:35:09.652Z,0
2017-01-12T03:36:08.869Z,0
2017-01-12T03:37:08.221Z,0
2017-01-12T03:38:08.598Z,0
2017-01-12T03:39:08.279Z,0
2017-01-12T03:40:08.450Z,0
2017-01-12T03:41:08.520Z,0
2017-01-12T03:42:08.710Z,0
2017-01-12T03:43:08.535Z,0
2017-01-12T03:44:09.475Z,0
2017-01-12T03:45:08.437Z,0
2017-01-12T03:46:08.387Z,0
2017-01-12T03:47:08.297Z,0
2017-01-12T03:48:08.692Z,0
2017-01-12T03:49:09.018Z,0
2017-01-12T03:50:08.551Z,0
2017-01-12T03:51:08.585Z,0
2017-01-12T03:52:08.441Z,0
2017-01-12T03:53:08.223Z,0
2017-01-12T03:54:07.885Z,0
2017-01-12T03:55:07.867Z,0
2017-01-12T03:56:07.670Z,0
2017-01-12T03:57:07.611Z,0
2017-01-12T03:58:07.701Z,0
2017-01-12T03:59:08.085Z,0
2017-01-12T04:00:08.413Z,0
2017-01-12T04:01:08.856Z,0
2017-01-12T04:02:07.869Z,0
2017-01-12T04:03:07.568Z,0
2017-01-12T04:04:08.295Z,0
2017-01-12T04:05:07.197Z,0
2017-01-12T04:06:07.757Z,0
2017-01-12T04:07:08.053Z,0
2017-01-12T04:08:07.459Z,0
2017-01-12T04:09:07.853Z,0
2017-01-12T04:10:08.159Z,0
2017-01-12T04:11:08.201Z,0
2017-01-12T04:12:08.106Z,0
2017-01-12T04:13:07.922Z,0
2017-01-12T04:14:08.098Z,0
2017-01-12T04:15:08.212Z,0
2017-01-12T04:16:08.532Z,0
2017-01-12T04:17:07.141Z,0
2017-01-12T04:18:08.312Z,0
2017-01-12T04:19:06.851Z,0
2017-01-12T04:20:06.921Z,0
2017-01-12T04:21:07.539Z,0
2017-01-12T04:22:06.724Z,0
2017-01-12T04:23:07.159Z,0
2017-01-12T04:24:08.469Z,0
2017-01-12T04:25:07.793Z,0
2017-01-12T04:26:08.069Z,0
2017-01-12T04:27:08.068Z,0
2017-01-12T04:28:06.644Z,0
2017-01-12T04:29:07.608Z,0
2017-01-12T04:30:07.016Z,0
2017-01-12T04:31:07.228Z,0
2017-01-12T04:32:06.965Z,0
2017-01-12T04:33:07.262Z,0
2017-01-12T04:34:07.233Z,0
2017-01-12T04:35:07.241Z,0
2017-01-12T04:36:06.796Z,0
2017-01-12T04:37:06.826Z,0
2017-01-12T04:38:08.152Z,0
2017-01-12T04:39:06.729Z,0
2017-01-12T04:40:06.755Z,0
2017-01-12T04:41:07.710Z,0
2017-01-12T04:42:06.699Z,0
2017-01-12T04:43:06.550Z,0
2017-01-12T04:44:06.597Z,0
2017-01-12T04:45:07.818Z,0
2017-01-12T04:46:06.539Z,0
2017-01-12T04:47:07.274Z,0
2017-01-12T04:48:07.897Z,0
2017-01-12T04:49:06.501Z,0
2017-01-12T04:50:06.566Z,0
2017-01-12T04:51:06.156Z,0
2017-01-12T04:52:07.378Z,0
2017-01-12T04:53:07.089Z,0
2017-01-12T04:54:06.673Z,0
2017-01-12T04:55:06.676Z,0
2017-01-12T04:56:06.747Z,0
2017-01-12T04:57:06.350Z,0
2017-01-12T04:58:06.575Z,0
2017-01-12T04:59:05.976Z,0
2017-01-12T05:00:06.330Z,0
2017-01-12T05:01:06.767Z,0
2017-01-12T05:02:07.625Z,0
2017-01-12T05:03:05.477Z,0
2017-01-12T05:04:06.817Z,0
2017-01-12T05:05:05.837Z,0
2017-01-12T05:06:06.716Z,0
2017-01-12T05:07:06.766Z,0
2017-01-12T05:08:07.245Z,0
2017-01-12T05:09:05.345Z,0
2017-01-12T05:10:05.970Z,0
2017-01-12T05:11:05.937Z,0
2017-01-12T05:12:06.973Z,0
2017-01-12T05:13:06.799Z,0
2017-01-12T05:14:06.618Z,0
2017-01-12T05:15:06.159Z,0
2017-01-12T05:16:06.416Z,0
2017-01-12T05:17:05.859Z,0
2017-01-12T05:18:06.180Z,0
2017-01-12T05:19:05.727Z,0
2017-01-12T05:20:06.428Z,0
2017-01-12T05:21:06.748Z,0
2017-01-12T05:22:06.450Z,0
2017-01-12T05:23:06.238Z,0
2017-01-12T05:24:06.101Z,0
2017-01-12T05:25:05.942Z,0
2017-01-12T05:26:05.559Z,0
2017-01-12T05:27:06.606Z,0
2017-01-12T05:28:05.585Z,0
2017-01-12T05:29:05.624Z,0
2017-01-12T05:30:05.879Z,0
2017-01-12T05:31:05.848Z,0
2017-01-12T05:32:04.870Z,0
2017-01-12T05:33:05.462Z,0
2017-01-12T05:34:06.105Z,0
2017-01-12T05:35:05.615Z,0
2017-01-12T05:36:05.977Z,0
2017-01-12T05:37:05.907Z,0
2017-01-12T05:38:04.535Z,0
2017-01-12T05:39:05.579Z,0
2017-01-12T05:40:06.639Z,0
2017-01-12T05:41:06.258Z,0
2017-01-12T05:42:05.967Z,0
2017-01-12T05:43:06.181Z,0
2017-01-12T05:44:04.897Z,0
2017-01-12T05:45:05.851Z,0
2017-01-12T05:46:05.702Z,0
2017-01-12T05:47:05.155Z,0
2017-01-12T05:48:05.370Z,0
2017-01-12T05:49:05.674Z,0
2017-01-12T05:50:05.563Z,0
2017-01-12T05:51:05.302Z,0
2017-01-12T05:52:05.452Z,0
2017-01-12T05:53:05.992Z,0
2017-01-12T05:54:05.213Z,0
2017-01-12T05:55:04.620Z,0
2017-01-12T05:56:05.259Z,0
2017-01-12T05:57:05.394Z,0
2017-01-12T05:58:06.068Z,0
2017-01-12T05:59:04.994Z,0
2017-01-12T06:00:05.676Z,0
2017-01-12T06:01:05.457Z,0
2017-01-12T06:02:05.445Z,0
2017-01-12T06:03:04.095Z,0
2017-01-12T06:04:04.746Z,0
2017-01-12T06:05:05.344Z,0
2017-01-12T06:06:05.324Z,0
2017-01-12T06:07:05.248Z,0
2017-01-12T06:08:04.283Z,0
2017-01-12T06:09:04.602Z,0
2017-01-12T06:10:05.562Z,0
2017-01-12T06:11:04.541Z,0
2017-01-12T06:12:04.651Z,0
2017-01-12T06:13:05.346Z,0
2017-01-12T06:14:04.385Z,0
2017-01-12T06:15:04.436Z,0
2017-01-12T06:16:04.447Z,0
2017-01-12T06:17:03.997Z,0
2017-01-12T06:18:05.357Z,0
2017-01-12T06:19:04.057Z,0
2017-01-12T06:20:04.366Z,0
2017-01-12T06:21:04.654Z,0
2017-01-12T06:22:04.238Z,0
2017-01-12T06:23:03.646Z,4
2017-01-12T06:24:04.917Z,4
2017-01-12T06:25:04.503Z,4
2017-01-12T06:26:04.556Z,4
2017-01-12T06:27:04.679Z,4
2017-01-12T06:28:04.142Z,4
2017-01-12T06:29:04.162Z,4
2017-01-12T06:30:05.202Z,4
2017-01-12T06:31:04.760Z,4
2017-01-12T06:32:04.066Z,4
2017-01-12T06:33:04.332Z,0
2017-01-12T06:34:05.329Z,0
2017-01-12T06:35:03.404Z,4
2017-01-12T06:36:04.522Z,4
2017-01-12T06:37:03.518Z,4
2017-01-12T06:38:03.247Z,0
2017-01-12T06:39:04.901Z,0
2017-01-12T06:40:04.546Z,4
2017-01-12T06:41:04.156Z,0
2017-01-12T06:42:04.482Z,0
2017-01-12T06:43:04.762Z,0
2017-01-12T06:44:05.067Z,0
2017-01-12T06:45:04.387Z,0
2017-01-12T06:46:04.567Z,0
2017-01-12T06:47:04.116Z,0
2017-01-12T06:48:04.227Z,0
2017-01-12T06:49:02.909Z,0
2017-01-12T06:50:04.945Z,0
2017-01-12T06:51:03.828Z,0
2017-01-12T06:52:04.084Z,0
2017-01-12T06:53:04.041Z,0
2017-01-12T06:54:04.147Z,0
2017-01-12T06:55:04.814Z,0
2017-01-12T06:56:04.656Z,0
2017-01-12T06:57:03.774Z,0
2017-01-12T06:58:03.932Z,0
2017-01-12T06:59:03.076Z,0
2017-01-12T07:00:04.271Z,0
2017-01-12T07:01:03.579Z,0
2017-01-12T07:02:03.991Z,4
2017-01-12T07:03:04.624Z,4
2017-01-12T07:04:03.509Z,4
2017-01-12T07:05:02.938Z,0
2017-01-12T07:06:03.557Z,4
2017-01-12T07:07:03.065Z,4
2017-01-12T07:08:04.200Z,4
2017-01-12T07:09:02.816Z,4
2017-01-12T07:10:03.454Z,8
2017-01-12T07:11:03.093Z,12
2017-01-12T07:12:03.002Z,12
2017-01-12T07:13:03.061Z,16
2017-01-12T07:14:03.683Z,16
2017-01-12T07:15:03.687Z,20
2017-01-12T07:16:02.899Z,20
2017-01-12T07:17:02.247Z,28
2017-01-12T07:18:04.016Z,32
2017-01-12T07:19:03.593Z,36
2017-01-12T07:20:04.209Z,40
2017-01-12T07:21:03.530Z,44
2017-01-12T07:22:03.538Z,48
2017-01-12T07:23:02.408Z,60
2017-01-12T07:24:03.126Z,76
2017-01-12T07:25:03.436Z,92
2017-01-12T07:26:03.055Z,104
2017-01-12T07:27:03.165Z,120
2017-01-12T07:28:02.775Z,136
2017-01-12T07:29:02.571Z,148
2017-01-12T07:30:02.495Z,168
2017-01-12T07:31:03.934Z,176
2017-01-12T07:32:03.950Z,188
2017-01-12T07:33:02.884Z,204
2017-01-12T07:34:03.871Z,224
2017-01-12T07:35:03.231Z,240
2017-01-12T07:36:02.813Z,260
2017-01-12T07:37:02.570Z,276
2017-01-12T07:38:02.350Z,300
2017-01-12T07:39:02.670Z,324
2017-01-12T07:40:02.988Z,348
2017-01-12T07:41:03.370Z,360
2017-01-12T07:42:01.678Z,376
2017-01-12T07:43:02.687Z,380
2017-01-12T07:44:02.527Z,356
2017-01-12T07:45:03.557Z,328
2017-01-12T07:46:02.596Z,296
2017-01-12T07:47:01.816Z,280
2017-01-12T07:48:03.038Z,300
2017-01-12T07:49:03.024Z,336
2017-01-12T07:50:02.707Z,368
2017-01-12T07:51:02.614Z,384
2017-01-12T07:52:02.276Z,400
2017-01-12T07:53:03.402Z,436
2017-01-12T07:54:02.562Z,464
2017-01-12T07:55:01.952Z,496
2017-01-12T07:56:03.156Z,532
2017-01-12T07:57:02.994Z,576
2017-01-12T07:58:02.457Z,596
2017-01-12T07:59:01.632Z,608
2017-01-12T08:00:01.485Z,624
2017-01-12T08:01:02.379Z,672
2017-01-12T08:02:01.859Z,740
2017-01-12T08:03:01.751Z,808
2017-01-12T08:04:01.149Z,836
2017-01-12T08:05:02.405Z,828
2017-01-12T08:06:02.407Z,812
2017-01-12T08:07:02.371Z,820
2017-01-12T08:08:01.683Z,856
2017-01-12T08:09:01.445Z,920
2017-01-12T08:10:02.115Z,1028
2017-01-12T08:11:01.849Z,1160
2017-01-12T08:12:00.988Z,1240
2017-01-12T08:13:02.563Z,1272
2017-01-12T08:14:01.939Z,1284
2017-01-12T08:15:02.122Z,1112
2017-01-12T08:16:02.033Z,1316
2017-01-12T08:17:02.098Z,1616
2017-01-12T08:18:02.623Z,1752
2017-01-12T08:19:01.434Z,1840
2017-01-12T08:20:02.619Z,1800
2017-01-12T08:21:01.932Z,1724
2017-01-12T08:22:02.201Z,1752
2017-01-12T08:23:02.302Z,1808
2017-01-12T08:24:01.323Z,1708
2017-01-12T08:25:01.946Z,1800
2017-01-12T08:26:01.955Z,1884
2017-01-12T08:27:01.915Z,2116
2017-01-12T08:28:01.736Z,2424
2017-01-12T08:29:02.345Z,2528
2017-01-12T08:30:01.899Z,1712
2017-01-12T08:31:01.456Z,1956
2017-01-12T08:32:01.776Z,2244
2017-01-12T08:33:01.073Z,2660
2017-01-12T08:34:02.024Z,3000
2017-01-12T08:35:02.228Z,2968
2017-01-12T08:36:02.382Z,2844
2017-01-12T08:37:00.683Z,2916
2017-01-12T08:38:01.827Z,5260
2017-01-12T08:39:00.882Z,4444
2017-01-12T08:40:01.621Z,2692
2017-01-12T08:41:01.222Z,2768
2017-01-12T08:42:00.326Z,2360
2017-01-12T08:43:00.710Z,2264
2017-01-12T08:44:01.178Z,2436
2017-01-12T08:45:00.832Z,2152
2017-01-12T08:46:01.350Z,1980
2017-01-12T08:47:01.077Z,2160
2017-01-12T08:48:01.394Z,2608
2017-01-12T08:49:01.350Z,5664
2017-01-12T08:50:02.045Z,6920
2017-01-12T08:51:01.316Z,5148
2017-01-12T08:52:01.053Z,3632
2017-01-12T08:53:00.608Z,4676
2017-01-12T08:54:00.521Z,4748
2017-01-12T08:55:01.053Z,7552
2017-01-12T08:56:00.941Z,5836
2017-01-12T08:57:00.549Z,13060
2017-01-12T08:58:00.456Z,17344
2017-01-12T08:59:01.513Z,14624
2017-01-12T09:00:01.274Z,13160
2017-01-12T09:01:00.010Z,13764
2017-01-12T09:02:01.253Z,15360
2017-01-12T09:03:00.938Z,15296
2017-01-12T09:04:01.029Z,15744
2017-01-12T09:05:01.453Z,10960
2017-01-12T09:06:01.027Z,2844
2017-01-12T09:07:00.157Z,2520
2017-01-12T09:08:00.854Z,2624
2017-01-12T09:08:59.865Z,2884
2017-01-12T09:10:01.587Z,3276
2017-01-12T09:10:59.553Z,4168
2017-01-12T09:12:00.720Z,4768
2017-01-12T09:13:00.354Z,5440
2017-01-12T09:14:00.228Z,10460
2017-01-12T09:15:01.495Z,28064
2017-01-12T09:16:00.832Z,28480
2017-01-12T09:17:00.908Z,25888
2017-01-12T09:18:00.336Z,27616
2017-01-12T09:18:59.779Z,27104
2017-01-12T09:20:01.350Z,25536
2017-01-12T09:20:59.426Z,26048
2017-01-12T09:22:00.009Z,27488
2017-01-12T09:22:59.867Z,25504
2017-01-12T09:24:00.594Z,6844
2017-01-12T09:24:59.607Z,6744
2017-01-12T09:25:59.845Z,6076
2017-01-12T09:26:59.867Z,5196
2017-01-12T09:27:59.880Z,5880
2017-01-12T09:28:59.524Z,6268
2017-01-12T09:30:00.446Z,7880
2017-01-12T09:31:01.155Z,22784
2017-01-12T09:31:59.345Z,24160
2017-01-12T09:33:01.076Z,26208
2017-01-12T09:33:59.566Z,27072
2017-01-12T09:34:59.606Z,30016
2017-01-12T09:35:59.740Z,29312
2017-01-12T09:37:00.332Z,28864
2017-01-12T09:37:59.888Z,7428
2017-01-12T09:39:00.483Z,5868
2017-01-12T09:39:59.584Z,5332
2017-01-12T09:41:00.905Z,7052
2017-01-12T09:41:59.068Z,8984
2017-01-12T09:43:00.620Z,21408
2017-01-12T09:44:00.818Z,17824
2017-01-12T09:44:59.805Z,12852
2017-01-12T09:45:59.076Z,14692
2017-01-12T09:47:00.117Z,13580
2017-01-12T09:48:00.022Z,7008
2017-01-12T09:48:59.328Z,5844
2017-01-12T09:49:59.852Z,10596
2017-01-12T09:51:00.683Z,24160
2017-01-12T09:51:59.036Z,29792
2017-01-12T09:52:59.719Z,30560
2017-01-12T09:54:00.310Z,32096
2017-01-12T09:54:59.962Z,31264
2017-01-12T09:55:59.978Z,26464
2017-01-12T09:57:00.363Z,24448
2017-01-12T09:58:00.065Z,21248
2017-01-12T09:58:59.759Z,21024
2017-01-12T10:00:00.530Z,15680
2017-01-12T10:00:59.007Z,13772
2017-01-12T10:01:59.754Z,17568
2017-01-12T10:02:58.579Z,12492
2017-01-12T10:03:59.789Z,10676
2017-01-12T10:04:59.527Z,7380
2017-01-12T10:05:59.865Z,10412
2017-01-12T10:06:59.511Z,8624
2017-01-12T10:07:59.015Z,9924
2017-01-12T10:08:59.375Z,9320
2017-01-12T10:09:59.870Z,9320
2017-01-12T10:10:59.019Z,10068
2017-01-12T10:11:59.383Z,12696
2017-01-12T10:12:59.659Z,12004
2017-01-12T10:13:59.924Z,10208
2017-01-12T10:14:59.778Z,9500
2017-01-12T10:15:59.260Z,9332
2017-01-12T10:16:58.908Z,8420
2017-01-12T10:17:59.531Z,7964
2017-01-12T10:18:59.200Z,8176
2017-01-12T10:19:59.684Z,8824
2017-01-12T10:21:00.135Z,10452
2017-01-12T10:22:00.138Z,11084
2017-01-12T10:22:59.144Z,10236
2017-01-12T10:23:59.182Z,10240
2017-01-12T10:24:58.982Z,17088
2017-01-12T10:25:58.706Z,15456
2017-01-12T10:26:59.858Z,8800
2017-01-12T10:27:58.574Z,9104
2017-01-12T10:28:59.632Z,10324
2017-01-12T10:29:58.963Z,10244
2017-01-12T10:30:58.812Z,11448
2017-01-12T10:31:58.833Z,12048
2017-01-12T10:32:59.144Z,11704
2017-01-12T10:33:58.681Z,12540
2017-01-12T10:34:57.773Z,13424
2017-01-12T10:35:58.215Z,11172
2017-01-12T10:36:58.689Z,9972
2017-01-12T10:37:59.169Z,10064
2017-01-12T10:38:58.783Z,9312
2017-01-12T10:39:58.466Z,10524
2017-01-12T10:40:58.764Z,12260
2017-01-12T10:41:58.113Z,13196
2017-01-12T10:42:59.715Z,12624
2017-01-12T10:43:58.716Z,9980
2017-01-12T10:44:58.700Z,8876
2017-01-12T10:45:58.034Z,9324
2017-01-12T10:46:58.173Z,9952
2017-01-12T10:47:59.603Z,10936
2017-01-12T10:48:58.804Z,12412
2017-01-12T10:49:58.588Z,11384
2017-01-12T10:50:59.245Z,9572
2017-01-12T10:51:59.521Z,10188
2017-01-12T10:52:57.795Z,9776
2017-01-12T10:53:58.829Z,11776
2017-01-12T10:54:59.303Z,8572
2017-01-12T10:55:58.049Z,10760
2017-01-12T10:56:59.494Z,12052
2017-01-12T10:57:59.079Z,12404
2017-01-12T10:58:58.745Z,11500
2017-01-12T10:59:59.199Z,12720
2017-01-12T11:00:58.887Z,13556
2017-01-12T11:01:58.101Z,13920
2017-01-12T11:02:59.334Z,15648
2017-01-12T11:03:58.494Z,17408
2017-01-12T11:04:57.892Z,17504
2017-01-12T11:05:58.937Z,17696
2017-01-12T11:06:59.071Z,19232
2017-01-12T11:07:57.911Z,18592
2017-01-12T11:08:58.485Z,17664
2017-01-12T11:09:58.109Z,18080
2017-01-12T11:10:58.056Z,17152
2017-01-12T11:11:59.175Z,15232
2017-01-12T11:12:58.376Z,14432
2017-01-12T11:13:58.417Z,15456
2017-01-12T11:14:58.466Z,12560
2017-01-12T11:15:58.615Z,12992
2017-01-12T11:16:58.295Z,11752
2017-01-12T11:17:58.563Z,12396
2017-01-12T11:18:57.731Z,11784
2017-01-12T11:19:58.371Z,12228
2017-01-12T11:20:57.071Z,12264
2017-01-12T11:21:58.866Z,12736
2017-01-12T11:22:58.983Z,6896
2017-01-12T11:23:58.953Z,12412
2017-01-12T11:24:57.572Z,6284
2017-01-12T11:25:57.588Z,10872
2017-01-12T11:26:58.406Z,8408
2017-01-12T11:27:58.283Z,10284
2017-01-12T11:28:57.875Z,9356
2017-01-12T11:29:58.516Z,10900
2017-01-12T11:30:57.855Z,10764
2017-01-12T11:31:58.163Z,9868
2017-01-12T11:32:58.083Z,9808
2017-01-12T11:33:57.487Z,9508
2017-01-12T11:34:58.090Z,9356
2017-01-12T11:35:56.770Z,8204
2017-01-12T11:36:58.387Z,8472
2017-01-12T11:37:57.509Z,8916
2017-01-12T11:38:57.387Z,9412
2017-01-12T11:39:58.000Z,7604
2017-01-12T11:40:57.257Z,7072
2017-01-12T11:41:57.861Z,5336
2017-01-12T11:42:57.886Z,7460
2017-01-12T11:43:57.135Z,7672
2017-01-12T11:44:57.485Z,4692
2017-01-12T11:45:57.495Z,6452
2017-01-12T11:46:57.563Z,5020
2017-01-12T11:47:57.282Z,4000
2017-01-12T11:48:58.487Z,3508
2017-01-12T11:49:57.825Z,3960
2017-01-12T11:50:57.139Z,5024
2017-01-12T11:51:57.446Z,7432
2017-01-12T11:52:57.638Z,7600
2017-01-12T11:53:57.089Z,8072
2017-01-12T11:54:57.643Z,8372
2017-01-12T11:55:57.375Z,4056
2017-01-12T11:56:58.355Z,4264
2017-01-12T11:57:57.772Z,7992
2017-01-12T11:58:56.764Z,5892
2017-01-12T11:59:56.973Z,4584
2017-01-12T12:00:57.501Z,3900
2017-01-12T12:01:57.247Z,3624
2017-01-12T12:02:57.583Z,4700
2017-01-12T12:03:58.080Z,8508
2017-01-12T12:04:57.508Z,6132
2017-01-12T12:05:57.551Z,7584
2017-01-12T12:06:56.829Z,11484
2017-01-12T12:07:58.125Z,9356
2017-01-12T12:08:57.485Z,7480
2017-01-12T12:09:56.767Z,6088
2017-01-12T12:10:56.675Z,5288
2017-01-12T12:11:58.060Z,9700
2017-01-12T12:12:57.998Z,7940
2017-01-12T12:13:57.362Z,7036
2017-01-12T12:14:56.101Z,5192
2017-01-12T12:15:56.571Z,4272
2017-01-12T12:16:56.940Z,4588
2017-01-12T12:17:56.538Z,6280
2017-01-12T12:18:56.920Z,4840
2017-01-12T12:19:57.208Z,4140
2017-01-12T12:20:56.847Z,5416
2017-01-12T12:21:56.525Z,5332
2017-01-12T12:22:57.796Z,8420
2017-01-12T12:23:56.721Z,8612
2017-01-12T12:24:56.784Z,4936
2017-01-12T12:25:57.633Z,4280
2017-01-12T12:26:57.092Z,8428
2017-01-12T12:27:57.372Z,4728
2017-01-12T12:28:56.382Z,11012
2017-01-12T12:29:56.091Z,5524
2017-01-12T12:30:56.982Z,11496
2017-01-12T12:31:56.945Z,5736
2017-01-12T12:32:56.952Z,5540
2017-01-12T12:33:57.245Z,14656
2017-01-12T12:34:56.158Z,4296
2017-01-12T12:35:56.158Z,4808
2017-01-12T12:36:56.439Z,6156
2017-01-12T12:37:56.211Z,10480
2017-01-12T12:38:56.596Z,8508
2017-01-12T12:39:56.051Z,7500
2017-01-12T12:40:57.119Z,6996
2017-01-12T12:41:57.146Z,9824
2017-01-12T12:42:57.426Z,7428
2017-01-12T12:43:56.386Z,8444
2017-01-12T12:44:56.561Z,8684
2017-01-12T12:45:56.784Z,7320
2017-01-12T12:46:57.230Z,6112
2017-01-12T12:47:57.312Z,5792
2017-01-12T12:48:56.473Z,6172
2017-01-12T12:49:56.463Z,4540
2017-01-12T12:50:57.288Z,4532
2017-01-12T12:51:56.611Z,5668
2017-01-12T12:52:55.751Z,5480
2017-01-12T12:53:56.199Z,5708
2017-01-12T12:54:57.176Z,5484
2017-01-12T12:55:56.398Z,4500
2017-01-12T12:56:56.343Z,4324
2017-01-12T12:57:55.859Z,4320
2017-01-12T12:58:55.096Z,4152
2017-01-12T12:59:55.039Z,4120
2017-01-12T13:00:56.387Z,4216
2017-01-12T13:01:56.847Z,4288
2017-01-12T13:02:57.013Z,4244
2017-01-12T13:03:56.344Z,4064
2017-01-12T13:04:56.804Z,3868
2017-01-12T13:05:56.502Z,3992
2017-01-12T13:06:55.614Z,4476
2017-01-12T13:07:56.241Z,4224
2017-01-12T13:08:56.562Z,4052
2017-01-12T13:09:55.461Z,3856
2017-01-12T13:10:55.521Z,3448
2017-01-12T13:11:56.092Z,3224
2017-01-12T13:12:55.391Z,3256
2017-01-12T13:13:56.622Z,3404
2017-01-12T13:14:55.650Z,3172
2017-01-12T13:15:55.401Z,3068
2017-01-12T13:16:56.685Z,2944
2017-01-12T13:17:55.379Z,2692
2017-01-12T13:18:55.998Z,2460
2017-01-12T13:19:56.017Z,2268
2017-01-12T13:20:55.188Z,2116
2017-01-12T13:21:56.566Z,2140
2017-01-12T13:22:55.187Z,2528
2017-01-12T13:23:56.592Z,2404
2017-01-12T13:24:55.458Z,2112
2017-01-12T13:25:56.154Z,2060
2017-01-12T13:26:55.842Z,1848
2017-01-12T13:27:56.134Z,1836
2017-01-12T13:28:55.984Z,1672
2017-01-12T13:29:55.678Z,1732
2017-01-12T13:30:55.419Z,1700
2017-01-12T13:31:54.965Z,1680
2017-01-12T13:32:55.270Z,1764
2017-01-12T13:33:55.695Z,1680
2017-01-12T13:34:54.793Z,1680
2017-01-12T13:35:55.664Z,1524
2017-01-12T13:36:55.599Z,1448
2017-01-12T13:37:55.262Z,1624
2017-01-12T13:38:55.479Z,1632
2017-01-12T13:39:54.831Z,1576
2017-01-12T13:40:54.885Z,1628
2017-01-12T13:41:55.027Z,1564
2017-01-12T13:42:55.157Z,1612
2017-01-12T13:43:54.464Z,1740
2017-01-12T13:44:53.984Z,1784
2017-01-12T13:45:55.914Z,1856
2017-01-12T13:46:55.450Z,1768
2017-01-12T13:47:54.320Z,1652
2017-01-12T13:48:55.242Z,1648
2017-01-12T13:49:55.524Z,1716
2017-01-12T13:50:53.974Z,1736
2017-01-12T13:51:54.308Z,1668
2017-01-12T13:52:54.852Z,1468
2017-01-12T13:53:55.256Z,1440
2017-01-12T13:54:55.766Z,1316
2017-01-12T13:55:54.471Z,1296
2017-01-12T13:56:55.044Z,1264
2017-01-12T13:57:54.687Z,1244
2017-01-12T13:58:55.122Z,1200
2017-01-12T13:59:55.439Z,1160